Time;durP1;ratioP1;P1;durP2;ratioP2;P2;SDS_P1;SDS_P2;PMS_P1;PMS_P2;Temp;Humidity;BMP_temperature;BMP_pressure;BME280_temperature;BME280_humidity;BME280_pressure;Samples;Min_cycle;Max_cycle;Signal;HPM_P1;HPM_P2
2023/10/02 00:01:52;;;;;;;17.55;9.85;;;18.80;99.90;;;;;;5080359;28;20043;-71
2023/10/02 00:04:24;;;;;;;20.42;9.00;;;18.80;99.90;;;;;;5094303;28;20393;-67
2023/10/02 00:07:05;;;;;;;19.10;9.52;;;18.80;99.90;;;;;;5112543;28;20040;-67
2023/10/02 00:09:35;;;;;;;16.27;9.10;;;18.80;99.90;;;;;;5094512;28;20044;-66
2023/10/02 00:12:13;;;;;;;21.60;9.57;;;18.80;99.90;;;;;;5112129;28;20051;-67
2023/10/02 00:14:41;;;;;;;19.77;9.13;;;18.80;99.90;;;;;;5094737;28;20051;-66
2023/10/02 00:17:13;;;;;;;18.13;9.70;;;18.80;99.90;;;;;;5080955;28;20131;-66
2023/10/02 00:19:39;;;;;;;21.63;10.18;;;18.70;99.90;;;;;;5098873;28;20067;-66
2023/10/02 00:22:34;;;;;;;18.23;10.02;;;18.70;99.90;;;;;;5098047;28;20492;-67
2023/10/02 00:24:57;;;;;;;20.75;10.07;;;18.70;99.90;;;;;;5115960;28;20043;-68
2023/10/02 00:27:23;;;;;;;22.05;10.02;;;18.60;99.90;;;;;;5115391;28;20087;-67
2023/10/02 00:29:53;;;;;;;20.85;9.80;;;18.60;99.90;;;;;;5116082;28;20059;-67
2023/10/02 00:32:19;;;;;;;18.52;10.05;;;18.60;99.90;;;;;;5115584;28;20197;-67
2023/10/02 00:34:46;;;;;;;20.60;9.27;;;18.60;99.90;;;;;;5098174;28;20493;-66
2023/10/02 00:37:12;;;;;;;20.95;10.18;;;18.60;99.90;;;;;;5115846;28;20050;-67
2023/10/02 00:39:40;;;;;;;21.05;10.38;;;18.50;99.90;;;;;;5116080;28;20035;-67
2023/10/02 00:42:24;;;;;;;22.00;10.07;;;18.60;99.90;;;;;;5097434;28;20105;-67
2023/10/02 00:44:54;;;;;;;20.30;9.75;;;18.60;99.90;;;;;;5083887;28;20385;-67
2023/10/02 00:47:49;;;;;;;20.50;10.73;;;18.60;99.90;;;;;;5115444;28;20039;-67
2023/10/02 00:50:18;;;;;;;21.50;10.90;;;18.50;99.90;;;;;;5097440;28;20074;-64
2023/10/02 00:52:52;;;;;;;21.65;10.60;;;18.50;99.90;;;;;;5097563;28;20552;-66
2023/10/02 00:55:38;;;;;;;24.38;11.63;;;18.50;99.90;;;;;;5097401;28;20043;-67
2023/10/02 00:58:08;;;;;;;22.00;11.55;;;18.50;99.90;;;;;;5114864;28;20052;-67
2023/10/02 01:00:37;;;;;;;20.15;11.05;;;18.50;99.90;;;;;;5115791;28;20050;-67
2023/10/02 01:03:15;;;;;;;19.85;10.88;;;18.50;99.90;;;;;;5096672;28;20382;-68
2023/10/02 01:05:42;;;;;;;19.77;10.65;;;18.50;99.90;;;;;;5097579;28;20042;-67
2023/10/02 01:08:25;;;;;;;19.20;9.80;;;18.40;99.90;;;;;;5096606;28;20043;-68
2023/10/02 01:10:57;;;;;;;21.63;11.55;;;18.40;99.90;;;;;;5097203;28;20496;-67
2023/10/02 01:13:32;;;;;;;25.73;12.10;;;18.40;99.90;;;;;;5115128;28;20133;-67
2023/10/02 01:16:00;;;;;;;22.70;11.23;;;18.40;99.90;;;;;;5115475;28;20058;-67
2023/10/02 01:18:29;;;;;;;22.48;11.95;;;18.30;99.90;;;;;;5096602;28;20055;-68
2023/10/02 01:21:00;;;;;;;24.88;11.55;;;18.20;99.90;;;;;;5115330;28;20054;-67
2023/10/02 01:23:28;;;;;;;23.00;11.93;;;18.20;99.90;;;;;;5096885;28;20051;-67
2023/10/02 01:26:00;;;;;;;24.75;12.65;;;18.20;99.90;;;;;;5096829;28;20087;-66
2023/10/02 01:28:51;;;;;;;24.58;13.02;;;18.20;99.90;;;;;;5096935;28;20220;-66
2023/10/02 01:31:35;;;;;;;23.77;12.93;;;18.20;99.90;;;;;;5098850;28;20086;-67
2023/10/02 01:34:03;;;;;;;26.45;13.40;;;18.10;99.90;;;;;;5081193;28;20557;-67
2023/10/02 01:36:31;;;;;;;23.60;13.13;;;18.10;99.90;;;;;;5095489;28;20079;-67
2023/10/02 01:39:10;;;;;;;24.33;13.18;;;18.10;99.90;;;;;;5079418;28;20047;-67
2023/10/02 01:41:48;;;;;;;22.58;12.70;;;18.20;99.90;;;;;;5113709;28;20052;-66
2023/10/02 01:44:20;;;;;;;26.35;13.85;;;18.20;99.90;;;;;;5113245;28;20119;-67
2023/10/02 01:46:52;;;;;;;27.05;13.25;;;18.10;99.90;;;;;;5113830;28;20123;-67
2023/10/02 01:49:24;;;;;;;28.67;13.07;;;18.10;99.90;;;;;;5113429;28;20079;-67
2023/10/02 01:51:55;;;;;;;24.27;13.27;;;18.10;99.90;;;;;;5095455;28;20435;-67
2023/10/02 01:54:29;;;;;;;24.15;12.90;;;18.10;99.90;;;;;;5113101;28;20052;-67
2023/10/02 01:56:56;;;;;;;29.55;13.20;;;18.10;99.90;;;;;;5095427;28;20464;-66
2023/10/02 01:59:24;;;;;;;21.77;12.55;;;18.10;99.90;;;;;;5095181;28;20047;-66
2023/10/02 02:01:52;;;;;;;28.80;14.25;;;18.10;99.90;;;;;;5113431;28;20043;-66
2023/10/02 02:04:19;;;;;;;29.35;12.85;;;18.10;99.90;;;;;;5112850;28;20050;-66
2023/10/02 02:06:51;;;;;;;23.60;13.23;;;18.10;99.90;;;;;;5113336;28;20101;-66
2023/10/02 02:09:23;;;;;;;24.65;12.63;;;18.10;99.90;;;;;;5077791;28;20426;-66
2023/10/02 02:12:05;;;;;;;25.35;13.25;;;18.10;99.90;;;;;;5113410;28;20116;-67
2023/10/02 02:14:41;;;;;;;24.63;13.90;;;18.10;99.90;;;;;;5112895;28;20103;-67
2023/10/02 02:17:10;;;;;;;25.45;13.10;;;18.10;99.90;;;;;;5095104;28;20043;-69
2023/10/02 02:19:48;;;;;;;25.70;14.50;;;18.10;99.90;;;;;;5113082;28;20047;-67
2023/10/02 02:22:26;;;;;;;27.90;14.25;;;18.10;99.90;;;;;;5113033;28;20059;-68
2023/10/02 02:24:53;;;;;;;25.42;14.05;;;18.00;99.90;;;;;;5113235;28;20399;-66
2023/10/02 02:27:19;;;;;;;27.45;14.00;;;18.00;99.90;;;;;;5112599;28;20126;-67
2023/10/02 02:29:54;;;;;;;25.73;13.52;;;18.00;99.90;;;;;;5095365;28;20092;-67
2023/10/02 02:32:36;;;;;;;27.02;14.90;;;18.00;99.90;;;;;;5072546;28;1138864;-68
2023/10/02 02:35:05;;;;;;;26.92;15.02;;;18.00;99.90;;;;;;5098005;28;20404;-67
2023/10/02 02:37:32;;;;;;;28.10;14.70;;;18.00;99.90;;;;;;5112681;28;20079;-67
2023/10/02 02:40:22;;;;;;;29.70;15.95;;;17.90;99.90;;;;;;5096174;28;20126;-67
2023/10/02 02:42:45;;;;;;;23.55;13.73;;;17.90;99.90;;;;;;5081715;28;20039;-66
2023/10/02 02:45:31;;;;;;;26.38;15.20;;;17.80;99.90;;;;;;5113907;28;20382;-66
2023/10/02 02:48:03;;;;;;;28.27;14.95;;;17.80;99.90;;;;;;5095835;28;20070;-67
2023/10/02 02:50:35;;;;;;;26.83;14.10;;;17.80;99.90;;;;;;5113411;28;20047;-67
2023/10/02 02:53:17;;;;;;;27.15;13.48;;;17.80;99.90;;;;;;5114090;28;20043;-66
2023/10/02 02:55:43;;;;;;;29.77;15.38;;;17.70;99.90;;;;;;5113547;28;20051;-66
2023/10/02 02:58:10;;;;;;;27.23;14.65;;;17.70;99.90;;;;;;5113117;28;20485;-67
2023/10/02 03:00:39;;;;;;;27.17;15.07;;;17.70;99.90;;;;;;5095288;28;20056;-66
2023/10/02 03:03:29;;;;;;;26.58;15.07;;;17.70;99.90;;;;;;5095613;28;20499;-67
2023/10/02 03:05:58;;;;;;;27.98;15.20;;;17.60;99.90;;;;;;5095054;28;20047;-67
2023/10/02 03:08:37;;;;;;;25.95;15.07;;;17.60;99.90;;;;;;5095231;28;20134;-67
2023/10/02 03:11:06;;;;;;;29.58;15.57;;;17.60;99.90;;;;;;5095569;28;20055;-67
2023/10/02 03:13:36;;;;;;;29.02;15.20;;;17.60;99.90;;;;;;5095050;28;20366;-68
2023/10/02 03:16:18;;;;;;;27.23;15.40;;;17.60;99.90;;;;;;5113367;28;20048;-67
2023/10/02 03:18:45;;;;;;;26.90;14.85;;;17.60;99.90;;;;;;5112747;28;20043;-68
2023/10/02 03:21:21;;;;;;;27.85;15.13;;;17.60;99.90;;;;;;5078156;28;20054;-67
2023/10/02 03:23:53;;;;;;;27.73;14.90;;;17.50;99.90;;;;;;5113134;28;20469;-67
2023/10/02 03:26:27;;;;;;;29.10;15.48;;;17.50;99.90;;;;;;5095403;28;20052;-67
2023/10/02 03:29:03;;;;;;;29.88;16.23;;;17.50;99.90;;;;;;5113081;28;20138;-68
2023/10/02 03:31:51;;;;;;;33.00;15.88;;;17.50;99.90;;;;;;5112247;28;20510;-66
2023/10/02 03:34:30;;;;;;;31.20;15.52;;;17.50;99.90;;;;;;5094646;28;20073;-67
2023/10/02 03:37:08;;;;;;;32.90;15.90;;;17.40;99.90;;;;;;5095022;28;20090;-67
2023/10/02 03:39:52;;;;;;;30.52;15.55;;;17.40;99.90;;;;;;5094309;28;20489;-66
2023/10/02 03:42:22;;;;;;;28.88;15.73;;;17.40;99.90;;;;;;5095246;28;20043;-66
2023/10/02 03:44:51;;;;;;;30.20;15.63;;;17.40;99.90;;;;;;5112030;28;20047;-66
2023/10/02 03:47:18;;;;;;;29.30;15.23;;;17.40;99.90;;;;;;5112524;28;20371;-67
2023/10/02 03:49:44;;;;;;;31.55;16.10;;;17.40;99.90;;;;;;5112401;28;20099;-66
2023/10/02 03:52:13;;;;;;;26.30;15.60;;;17.40;99.90;;;;;;5094623;28;20047;-66
2023/10/02 03:54:39;;;;;;;26.63;15.82;;;17.40;99.90;;;;;;5112189;28;20445;-67
2023/10/02 03:57:10;;;;;;;25.13;15.30;;;17.30;99.90;;;;;;5094422;28;20043;-66
2023/10/02 03:59:51;;;;;;;29.42;15.98;;;17.30;99.90;;;;;;5094700;28;20146;-67
2023/10/02 04:02:24;;;;;;;29.38;16.35;;;17.40;99.90;;;;;;5094691;28;20206;-66
2023/10/02 04:04:49;;;;;;;29.02;15.98;;;17.40;99.90;;;;;;5112229;28;20039;-67
2023/10/02 04:07:17;;;;;;;27.13;15.43;;;17.40;99.90;;;;;;5094699;28;20131;-66
2023/10/02 04:09:50;;;;;;;24.70;14.98;;;17.30;99.90;;;;;;5094259;28;20055;-66
2023/10/02 04:12:19;;;;;;;29.40;16.45;;;17.30;99.90;;;;;;5112887;28;20051;-67
2023/10/02 04:14:46;;;;;;;27.70;15.88;;;17.30;99.90;;;;;;5077784;28;20432;-67
2023/10/02 04:17:14;;;;;;;32.92;15.85;;;17.30;99.90;;;;;;5077106;28;20040;-67
2023/10/02 04:19:51;;;;;;;25.15;14.82;;;17.30;99.90;;;;;;5112063;28;20047;-67
2023/10/02 04:22:25;;;;;;;28.70;15.27;;;17.30;99.90;;;;;;5094517;28;20055;-66
2023/10/02 04:25:03;;;;;;;29.60;15.63;;;17.20;99.90;;;;;;5094230;28;20289;-66
2023/10/02 04:32:39;;;;;;;30.23;15.68;;;17.20;99.90;;;;;;5090236;28;20091;-67
2023/10/02 04:35:44;;;;;;;25.88;14.93;;;17.20;99.90;;;;;;5092077;28;20148;-66
2023/10/02 04:37:59;;;;;;;25.83;14.57;;;17.20;99.90;;;;;;5091181;28;20051;-67
2023/10/02 04:40:37;;;;;;;24.45;14.68;;;17.30;99.90;;;;;;5092239;28;20126;-66
2023/10/02 04:43:19;;;;;;;29.27;16.10;;;17.30;99.90;;;;;;5092015;28;20044;-66
2023/10/02 04:46:14;;;;;;;26.77;15.20;;;17.30;99.90;;;;;;5091731;28;20129;-67
2023/10/02 04:48:42;;;;;;;;;;;17.30;99.90;;;;;;5107764;28;20104;-67
2023/10/02 04:51:09;;;;;;;29.92;16.27;;;17.30;99.90;;;;;;5091695;28;19921;-68
2023/10/02 04:53:36;;;;;;;29.90;15.27;;;17.30;99.90;;;;;;5091796;28;20051;-67
2023/10/02 04:58:49;;;;;;;25.70;14.82;;;17.30;99.90;;;;;;5089614;28;20139;-67
2023/10/02 05:01:29;;;;;;;27.98;15.90;;;17.20;99.90;;;;;;5091952;28;20056;-67
2023/10/02 05:04:07;;;;;;;25.52;14.88;;;17.20;99.90;;;;;;5077604;28;20123;-67
2023/10/02 05:06:52;;;;;;;26.90;16.38;;;17.20;99.90;;;;;;5111029;28;20052;-66
2023/10/02 05:09:20;;;;;;;27.77;15.68;;;17.20;99.90;;;;;;5063274;28;20131;-68
2023/10/02 05:11:58;;;;;;;29.00;15.45;;;17.20;99.90;;;;;;5094762;28;20512;-68
2023/10/02 05:14:26;;;;;;;27.60;14.98;;;17.10;99.90;;;;;;5093973;28;20081;-68
2023/10/02 05:17:18;;;;;;;29.83;15.52;;;17.10;99.90;;;;;;5093048;28;20044;-66
2023/10/02 05:19:57;;;;;;;25.88;15.00;;;17.10;99.90;;;;;;5093123;28;20098;-67
2023/10/02 05:22:27;;;;;;;27.73;15.73;;;17.10;99.90;;;;;;5094027;28;20055;-67
2023/10/02 05:25:04;;;;;;;31.08;15.70;;;17.00;99.90;;;;;;5093328;28;20090;-67
2023/10/02 05:27:33;;;;;;;27.95;15.63;;;17.00;99.90;;;;;;5076855;28;20048;-67
2023/10/02 05:30:14;;;;;;;28.52;15.35;;;17.00;99.90;;;;;;5093128;28;20079;-67
2023/10/02 05:32:42;;;;;;;30.00;15.82;;;17.00;99.90;;;;;;5093683;28;20067;-69
2023/10/02 05:37:42;;;;;;;27.52;16.65;;;16.90;99.90;;;;;;5093250;28;20044;-68
2023/10/02 05:42:54;;;;;;;32.72;16.75;;;16.90;99.90;;;;;;5094148;28;20087;-68
2023/10/02 05:45:37;;;;;;;28.60;15.40;;;16.90;99.90;;;;;;5093588;28;20044;-66
2023/10/02 05:48:08;;;;;;;28.45;16.60;;;16.90;99.90;;;;;;5078532;28;20055;-67
2023/10/02 05:50:37;;;;;;;26.27;15.20;;;16.90;99.90;;;;;;5094500;28;20044;-66
2023/10/02 05:53:04;;;;;;;28.13;14.98;;;16.90;99.90;;;;;;5076521;28;20044;-67
2023/10/02 05:55:56;;;;;;;29.17;15.95;;;16.90;99.90;;;;;;5094408;28;20056;-67
2023/10/02 05:58:49;;;;;;;30.13;15.40;;;16.90;99.90;;;;;;5092377;28;20397;-67
2023/10/02 06:01:23;;;;;;;24.60;15.32;;;16.90;99.90;;;;;;5090452;28;20059;-67
2023/10/02 06:03:56;;;;;;;27.23;15.75;;;16.90;99.90;;;;;;5092730;28;20058;-68
2023/10/02 06:06:23;;;;;;;25.70;15.57;;;16.90;99.90;;;;;;5094349;28;20083;-67
2023/10/02 06:08:56;;;;;;;30.90;15.82;;;16.90;99.90;;;;;;5093645;28;20052;-67
2023/10/02 06:11:25;;;;;;;27.23;15.35;;;17.00;99.90;;;;;;5076580;28;20466;-66
2023/10/02 06:14:13;;;;;;;26.52;15.80;;;17.00;99.90;;;;;;5075412;28;20445;-66
2023/10/02 06:16:45;;;;;;;29.15;15.48;;;17.00;99.90;;;;;;5109818;28;20040;-67
2023/10/02 06:19:14;;;;;;;30.27;16.45;;;17.00;99.90;;;;;;5093648;28;20176;-66
2023/10/02 06:24:29;;;;;;;24.23;15.57;;;17.00;99.90;;;;;;5092594;28;20465;-67
2023/10/02 06:26:58;;;;;;;30.67;16.20;;;17.00;99.90;;;;;;5093291;28;20040;-67
2023/10/02 06:29:29;;;;;;;28.30;14.65;;;17.00;99.90;;;;;;5092662;28;20178;-66
2023/10/02 06:31:59;;;;;;;28.27;15.25;;;17.10;99.90;;;;;;5093779;28;20047;-66
2023/10/02 06:34:38;;;;;;;26.17;15.60;;;17.10;99.90;;;;;;5078811;28;20066;-65
2023/10/02 06:37:12;;;;;;;31.83;16.13;;;17.10;99.90;;;;;;5095481;28;20047;-65
2023/10/02 06:39:45;;;;;;;26.50;15.48;;;17.10;99.90;;;;;;5095414;28;20059;-66
2023/10/02 06:42:15;;;;;;;27.35;16.58;;;17.10;99.90;;;;;;5113394;28;20733;-65
2023/10/02 06:44:42;;;;;;;30.30;14.70;;;17.10;99.90;;;;;;5113908;28;20393;-68
2023/10/02 06:47:13;;;;;;;25.23;15.35;;;17.20;99.90;;;;;;5113563;28;20208;-65
2023/10/02 06:49:40;;;;;;;27.70;16.02;;;17.20;99.90;;;;;;5095748;28;20401;-66
2023/10/02 06:52:17;;;;;;;27.30;15.68;;;17.20;99.90;;;;;;5078334;28;20079;-66
2023/10/02 06:54:48;;;;;;;26.35;14.70;;;17.30;99.90;;;;;;5113780;28;20424;-66
2023/10/02 06:57:16;;;;;;;28.90;14.65;;;17.30;99.90;;;;;;5113230;28;20032;-66
2023/10/02 06:59:52;;;;;;;27.77;15.68;;;17.30;99.90;;;;;;5113578;28;20051;-67
2023/10/02 07:02:21;;;;;;;32.03;16.27;;;17.40;99.90;;;;;;5095090;28;20043;-67
2023/10/02 07:04:48;;;;;;;28.63;15.05;;;17.40;99.90;;;;;;5078279;28;20519;-68
2023/10/02 07:07:24;;;;;;;25.02;14.90;;;17.40;99.90;;;;;;5112990;28;20047;-67
2023/10/02 07:09:54;;;;;;;33.85;15.77;;;17.50;99.90;;;;;;5095613;28;20043;-67
2023/10/02 07:12:21;;;;;;;28.65;15.65;;;17.50;99.90;;;;;;5095134;28;20043;-66
2023/10/02 07:14:47;;;;;;;27.77;14.98;;;17.60;99.90;;;;;;5112663;28;20123;-67
2023/10/02 07:17:18;;;;;;;26.63;15.00;;;17.80;99.90;;;;;;5112414;28;20510;-67
2023/10/02 07:19:49;;;;;;;26.40;13.82;;;17.90;99.90;;;;;;5096000;28;20047;-67
2023/10/02 07:22:23;;;;;;;26.88;15.60;;;18.00;99.90;;;;;;5112450;28;20481;-67
2023/10/02 07:24:52;;;;;;;26.83;14.35;;;18.10;99.90;;;;;;5078059;28;20059;-66
2023/10/02 07:27:28;;;;;;;24.85;14.38;;;18.30;99.90;;;;;;5112768;28;20071;-67
2023/10/02 07:29:59;;;;;;;29.90;16.20;;;18.50;99.90;;;;;;5078215;28;20051;-68
2023/10/02 07:32:27;;;;;;;26.50;15.48;;;18.70;99.90;;;;;;5095061;28;20095;-68
2023/10/02 07:34:54;;;;;;;25.98;16.15;;;19.00;99.90;;;;;;5112948;28;20457;-67
2023/10/02 07:37:23;;;;;;;27.17;15.18;;;19.20;99.90;;;;;;5112250;28;20043;-67
2023/10/02 07:40:00;;;;;;;25.88;15.15;;;19.60;99.90;;;;;;5112969;28;20104;-67
2023/10/02 07:42:31;;;;;;;24.63;14.68;;;20.20;99.90;;;;;;5112794;28;20078;-67
2023/10/02 07:48:10;;;;;;;26.42;14.95;;;21.00;99.90;;;;;;5090324;28;20043;-67
2023/10/02 07:50:39;;;;;;;25.98;15.27;;;21.50;99.90;;;;;;5080670;28;20488;-66
2023/10/02 07:53:06;;;;;;;25.55;14.65;;;22.00;99.90;;;;;;5094370;28;20044;-68
2023/10/02 07:55:39;;;;;;;28.00;15.07;;;22.50;99.90;;;;;;5112780;28;20059;-69
2023/10/02 07:58:08;;;;;;;27.42;15.43;;;22.80;99.90;;;;;;5094270;28;20047;-68
2023/10/02 08:00:38;;;;;;;29.52;15.32;;;22.90;99.90;;;;;;5112663;28;20035;-68
2023/10/02 08:03:09;;;;;;;28.40;16.17;;;23.20;99.90;;;;;;5094480;28;20077;-70
2023/10/02 08:05:35;;;;;;;27.23;15.55;;;23.30;99.90;;;;;;5095449;28;20047;-68
2023/10/02 08:08:10;;;;;;;26.55;15.85;;;23.40;99.90;;;;;;5094657;28;20430;-69
2023/10/02 08:10:53;;;;;;;26.17;14.88;;;23.30;99.90;;;;;;5094725;28;20075;-68
2023/10/02 08:13:32;;;;;;;24.23;14.73;;;23.20;99.90;;;;;;5077251;28;20096;-68
2023/10/02 08:16:01;;;;;;;25.95;15.38;;;23.20;99.90;;;;;;5094291;28;20047;-68
2023/10/02 08:18:28;;;;;;;25.98;15.27;;;23.30;99.90;;;;;;5094109;28;20051;-69
2023/10/02 08:20:55;;;;;;;26.67;16.00;;;23.30;99.90;;;;;;5112428;28;20051;-69
2023/10/02 08:23:23;;;;;;;27.88;15.63;;;23.30;99.90;;;;;;5111812;28;20097;-69
2023/10/02 08:26:02;;;;;;;32.80;16.27;;;23.20;99.90;;;;;;5094028;28;20473;-68
2023/10/02 08:28:35;;;;;;;23.00;14.23;;;23.20;99.90;;;;;;5094131;28;20058;-68
2023/10/02 08:31:02;;;;;;;26.73;14.43;;;23.50;99.90;;;;;;5094280;28;20154;-68
2023/10/02 08:33:31;;;;;;;30.27;16.00;;;23.70;99.90;;;;;;5093315;28;20055;-68
2023/10/02 08:36:09;;;;;;;25.30;15.85;;;23.90;99.90;;;;;;5095198;28;20489;-67
2023/10/02 08:38:36;;;;;;;30.42;16.20;;;23.90;99.90;;;;;;5098045;28;20538;-67
2023/10/02 08:41:07;;;;;;;21.13;13.23;;;24.00;99.90;;;;;;5115980;28;20048;-68
2023/10/02 08:43:41;;;;;;;29.80;16.25;;;24.30;99.90;;;;;;5097897;28;20040;-67
2023/10/02 08:46:08;;;;;;;23.85;14.73;;;24.40;99.90;;;;;;5098106;28;20051;-69
2023/10/02 08:48:34;;;;;;;26.92;15.05;;;24.60;99.90;;;;;;5113865;28;20050;-70
2023/10/02 08:51:00;;;;;;;23.40;15.00;;;24.80;99.90;;;;;;5115585;28;20127;-68
2023/10/02 08:53:26;;;;;;;27.60;15.70;;;24.80;99.90;;;;;;5097658;28;20484;-68
2023/10/02 08:56:01;;;;;;;28.70;16.13;;;24.60;99.90;;;;;;5115312;28;20043;-67
2023/10/02 08:58:27;;;;;;;26.80;17.00;;;24.30;99.90;;;;;;5096302;28;20046;-68
2023/10/02 09:03:47;;;;;;;28.83;18.13;;;23.40;99.90;;;;;;5114804;28;20090;-68
2023/10/02 09:06:28;;;;;;;32.15;17.80;;;22.90;99.90;;;;;;5080112;28;20481;-69
2023/10/02 09:11:39;;;;;;;27.20;15.77;;;22.40;99.90;;;;;;5099470;28;20146;-67
2023/10/02 09:14:21;;;;;;;29.05;17.05;;;22.30;99.90;;;;;;5096908;28;20051;-66
2023/10/02 09:17:07;;;;;;;31.10;17.38;;;22.20;99.90;;;;;;5115316;28;20048;-68
2023/10/02 09:19:37;;;;;;;29.33;17.08;;;22.30;99.90;;;;;;5095409;28;20118;-67
2023/10/02 09:22:07;;;;;;;29.63;16.80;;;22.20;99.90;;;;;;5096283;28;20044;-68
2023/10/02 09:24:40;;;;;;;29.23;17.73;;;22.30;99.90;;;;;;5114165;28;20044;-68
2023/10/02 09:27:30;;;;;;;33.77;18.43;;;22.30;99.90;;;;;;5114770;28;20572;-67
2023/10/02 09:32:51;;;;;;;29.00;14.82;;;22.40;99.90;;;;;;5114491;28;20055;-68
2023/10/02 09:35:52;;;;;;;31.30;16.83;;;22.30;99.90;;;;;;5114188;28;20055;-69
2023/10/02 09:38:16;;;;;;;34.92;16.70;;;22.20;99.90;;;;;;5092038;28;20136;-67
2023/10/02 09:41:00;;;;;;;28.77;17.40;;;22.20;99.90;;;;;;5113614;28;20189;-67
2023/10/02 09:43:36;;;;;;;27.20;16.90;;;22.20;99.90;;;;;;5114121;28;20047;-68
2023/10/02 09:46:06;;;;;;;30.15;16.55;;;22.20;99.90;;;;;;5113973;28;20097;-69
2023/10/02 09:51:30;;;;;;;32.67;15.98;;;22.10;99.90;;;;;;5096444;28;20056;-67
2023/10/02 09:54:28;;;;;;;33.05;17.00;;;22.00;99.90;;;;;;5096832;28;20047;-67
2023/10/02 09:57:05;;;;;;;27.10;15.60;;;21.90;99.90;;;;;;5114431;28;20043;-67
2023/10/02 09:59:57;;;;;;;30.38;16.50;;;22.00;99.90;;;;;;5095541;28;20134;-67
2023/10/02 10:11:15;;;;;;;30.35;17.05;;;22.10;99.90;;;;;;5095399;28;20493;-69
2023/10/02 10:13:32;;;;;;;33.97;17.58;;;22.20;99.90;;;;;;5080675;28;20131;-71
2023/10/02 10:16:18;;;;;;;29.33;16.00;;;22.20;99.90;;;;;;5095940;28;20050;-69
2023/10/02 10:24:33;;;;;;;27.55;15.43;;;22.30;99.90;;;;;;5095374;28;20094;-72
2023/10/02 10:26:59;;;;;;;29.27;16.02;;;22.30;99.90;;;;;;5113737;28;20084;-71
2023/10/02 10:30:10;;;;;;;26.95;15.48;;;22.40;99.90;;;;;;5095438;28;20408;-71
2023/10/02 10:32:36;;;;;;;32.38;16.45;;;22.40;99.90;;;;;;5057824;28;20108;-69
2023/10/02 10:35:15;;;;;;;28.73;15.98;;;22.40;99.90;;;;;;5114099;28;20052;-68
2023/10/02 10:37:46;;;;;;;25.67;15.20;;;22.40;99.90;;;;;;5094939;28;20086;-69
2023/10/02 10:40:44;;;;;;;29.73;14.85;;;22.50;99.90;;;;;;5114117;28;20116;-68
2023/10/02 10:43:21;;;;;;;26.08;14.27;;;22.60;99.90;;;;;;5092031;28;20056;-70
2023/10/02 10:45:48;;;;;;;28.25;15.50;;;22.70;99.90;;;;;;5095125;28;20321;-68
2023/10/02 10:48:23;;;;;;;26.40;15.57;;;22.80;99.90;;;;;;5113446;28;20108;-68
2023/10/02 10:51:06;;;;;;;26.40;14.65;;;22.90;99.90;;;;;;5095917;28;20400;-69
2023/10/02 10:53:41;;;;;;;24.85;14.18;;;22.90;99.90;;;;;;5097074;28;20051;-69
2023/10/02 10:56:19;;;;;;;27.05;15.35;;;23.00;99.90;;;;;;5113607;28;20109;-69
2023/10/02 10:58:47;;;;;;;25.23;14.38;;;23.00;99.90;;;;;;5112609;28;20044;-69
2023/10/02 11:01:20;;;;;;;26.85;15.18;;;23.00;99.90;;;;;;5095768;28;20126;-67
2023/10/02 11:03:55;;;;;;;30.42;16.40;;;23.00;99.90;;;;;;5094976;28;20127;-68
2023/10/02 11:06:24;;;;;;;32.50;16.27;;;22.90;99.90;;;;;;5113267;28;20047;-69
2023/10/02 11:09:11;;;;;;;29.20;16.70;;;22.90;99.90;;;;;;5113031;28;20044;-68
2023/10/02 11:11:50;;;;;;;29.13;16.70;;;22.80;99.90;;;;;;5112250;28;20067;-68
2023/10/02 11:14:20;;;;;;;30.40;16.83;;;22.80;99.90;;;;;;5113286;28;20039;-69
2023/10/02 11:16:54;;;;;;;32.38;18.20;;;22.80;99.90;;;;;;5113166;28;20047;-69
2023/10/02 11:19:23;;;;;;;27.98;17.42;;;22.70;99.90;;;;;;5095531;28;20419;-68
2023/10/02 11:22:14;;;;;;;28.63;16.98;;;22.70;99.90;;;;;;5112829;28;20493;-68
2023/10/02 11:25:17;;;;;;;31.88;16.67;;;22.70;99.90;;;;;;5113112;28;20048;-68
2023/10/02 11:27:44;;;;;;;26.15;15.23;;;22.70;99.90;;;;;;5091462;28;20114;-69
2023/10/02 11:30:30;;;;;;;29.80;15.57;;;22.70;99.90;;;;;;5113373;28;20051;-68
2023/10/02 11:33:04;;;;;;;28.20;15.95;;;22.80;99.90;;;;;;5095065;28;20130;-68
2023/10/02 11:35:37;;;;;;;29.33;15.50;;;22.90;99.90;;;;;;5113264;28;20130;-69
2023/10/02 11:38:04;;;;;;;26.35;15.18;;;22.90;99.90;;;;;;5095100;28;20073;-69
2023/10/02 11:40:32;;;;;;;28.13;16.42;;;23.00;99.90;;;;;;5095039;28;20051;-69
2023/10/02 11:42:59;;;;;;;31.75;16.73;;;23.10;99.90;;;;;;5095134;28;20077;-69
2023/10/02 11:45:26;;;;;;;29.83;16.42;;;23.10;99.90;;;;;;5095099;28;20047;-69
2023/10/02 11:47:53;;;;;;;28.13;16.30;;;23.20;99.90;;;;;;5094743;28;20039;-68
2023/10/02 11:50:19;;;;;;;23.48;15.13;;;23.10;99.90;;;;;;5094857;28;20055;-68
2023/10/02 11:52:44;;;;;;;27.08;15.13;;;23.10;99.90;;;;;;5094457;28;20158;-69
2023/10/02 11:55:11;;;;;;;30.92;15.63;;;23.20;99.90;;;;;;5094661;28;20059;-69
2023/10/02 11:57:37;;;;;;;25.65;14.93;;;23.20;99.90;;;;;;5112636;28;20040;-70
2023/10/02 12:00:08;;;;;;;27.90;14.98;;;23.20;99.90;;;;;;5112763;28;20044;-68
2023/10/02 12:02:35;;;;;;;27.17;15.80;;;23.20;99.90;;;;;;5094935;28;20127;-67
2023/10/02 12:05:00;;;;;;;23.48;14.93;;;23.10;99.90;;;;;;5094363;28;20044;-68
2023/10/02 12:07:26;;;;;;;25.38;14.70;;;23.10;99.90;;;;;;5112770;28;20073;-69
2023/10/02 12:09:53;;;;;;;26.80;15.63;;;23.10;99.90;;;;;;5113768;28;20048;-69
2023/10/02 12:12:19;;;;;;;26.15;15.65;;;23.10;99.90;;;;;;5098461;28;20056;-67
2023/10/02 12:14:45;;;;;;;29.90;16.50;;;23.10;99.90;;;;;;5098836;28;20050;-68
2023/10/02 12:17:11;;;;;;;25.48;14.80;;;23.10;99.90;;;;;;5116688;28;20127;-68
2023/10/02 12:19:39;;;;;;;24.75;15.75;;;23.10;99.90;;;;;;5116872;28;20165;-68
2023/10/02 12:22:06;;;;;;;24.60;14.30;;;23.20;99.90;;;;;;5098958;28;20489;-69
2023/10/02 12:24:36;;;;;;;29.30;16.27;;;23.20;99.90;;;;;;5098885;28;20044;-69
2023/10/02 12:27:10;;;;;;;28.48;17.00;;;23.20;99.90;;;;;;5116231;28;20042;-70
2023/10/02 12:29:37;;;;;;;29.95;16.40;;;23.10;99.90;;;;;;5116984;28;20058;-71
2023/10/02 12:32:03;;;;;;;26.83;14.88;;;23.10;99.90;;;;;;5116282;28;20602;-71
2023/10/02 12:34:29;;;;;;;31.20;16.52;;;23.10;99.90;;;;;;5098624;28;20139;-67
2023/10/02 12:36:55;;;;;;;28.95;17.05;;;23.10;99.90;;;;;;5097972;28;20044;-67
2023/10/02 12:39:28;;;;;;;25.05;17.15;;;23.10;99.90;;;;;;5116505;28;20079;-69
2023/10/02 12:41:55;;;;;;;26.53;17.87;;;23.10;99.90;;;;;;5099229;28;20438;-68
2023/10/02 12:44:21;;;;;;;29.40;18.25;;;23.10;99.90;;;;;;5116321;28;20282;-67
2023/10/02 12:46:50;;;;;;;33.35;18.85;;;23.00;99.90;;;;;;5097938;28;20051;-67
2023/10/02 12:49:19;;;;;;;33.30;18.25;;;23.00;99.90;;;;;;5115380;28;20047;-67
2023/10/02 12:51:45;;;;;;;27.02;16.85;;;23.00;99.90;;;;;;5098173;28;20039;-68
2023/10/02 12:54:11;;;;;;;29.65;17.52;;;23.00;99.90;;;;;;5116183;28;20043;-68
2023/10/02 12:56:39;;;;;;;27.35;17.52;;;22.90;99.90;;;;;;5081153;28;20108;-68
2023/10/02 12:59:09;;;;;;;27.38;17.52;;;22.90;99.90;;;;;;5080441;28;20497;-68
2023/10/02 13:01:35;;;;;;;31.65;17.88;;;22.90;99.90;;;;;;5116161;28;20166;-69
2023/10/02 13:04:01;;;;;;;33.55;17.63;;;23.00;99.90;;;;;;5097467;28;20047;-68
2023/10/02 13:06:29;;;;;;;25.20;16.27;;;23.00;99.90;;;;;;5098023;28;20054;-68
2023/10/02 13:09:01;;;;;;;25.17;15.55;;;22.90;99.90;;;;;;5097269;28;20516;-68
2023/10/02 13:11:27;;;;;;;24.75;15.77;;;23.00;99.90;;;;;;5081982;28;20052;-69
2023/10/02 13:13:55;;;;;;;25.75;14.95;;;22.90;99.90;;;;;;5080933;28;20396;-68
2023/10/02 13:16:23;;;;;;;27.20;15.30;;;23.00;99.90;;;;;;5115938;28;20052;-68
2023/10/02 13:18:55;;;;;;;27.85;16.20;;;23.00;99.90;;;;;;5115619;28;20044;-68
2023/10/02 13:21:21;;;;;;;25.10;14.98;;;23.10;99.90;;;;;;5097999;28;20047;-68
2023/10/02 13:23:48;;;;;;;25.27;16.35;;;23.10;99.90;;;;;;5097778;28;20043;-69
2023/10/02 13:26:16;;;;;;;27.02;16.58;;;23.10;99.90;;;;;;5097510;28;20054;-68
2023/10/02 13:28:54;;;;;;;28.73;16.65;;;23.10;99.90;;;;;;5115765;28;20086;-67
2023/10/02 13:31:20;;;;;;;29.02;17.00;;;23.00;99.90;;;;;;5097603;28;20054;-68
2023/10/02 13:33:48;;;;;;;27.45;15.50;;;23.00;99.90;;;;;;5115743;28;20052;-69
2023/10/02 13:36:22;;;;;;;26.83;16.48;;;23.00;99.90;;;;;;5115673;28;20105;-68
2023/10/02 13:38:50;;;;;;;28.58;16.80;;;23.00;99.90;;;;;;5097177;28;20101;-68
2023/10/02 13:41:17;;;;;;;30.75;17.90;;;23.00;99.90;;;;;;5097390;28;20039;-68